Time;durP1;ratioP1;P1;durP2;ratioP2;P2;SDS_P1;SDS_P2;PMS_P1;PMS_P2;Temp;Humidity;BMP_temperature;BMP_pressure;BME280_temperature;BME280_humidity;BME280_pressure;Samples;Min_cycle;Max_cycle;Signal;HPM_P1;HPM_P2
2023/04/19 00:01:23;;;;;;;6.80;2.08;;;;;;;10.04;67.89;100268.16;1700781;84;21016;-56
2023/04/19 00:03:52;;;;;;;4.03;2.10;;;;;;;10.07;67.59;100260.41;1700802;84;21056;-56
2023/04/19 00:06:22;;;;;;;5.58;2.12;;;;;;;10.08;67.45;100265.35;1701022;84;21044;-57
2023/04/19 00:08:51;;;;;;;5.95;2.02;;;;;;;10.08;67.23;100269.46;1701027;84;21088;-56
2023/04/19 00:11:22;;;;;;;3.47;2.05;;;;;;;10.08;66.91;100256.62;1700957;84;21004;-56
2023/04/19 00:13:52;;;;;;;4.03;2.02;;;;;;;10.09;66.19;100261.57;1701042;84;21056;-56
2023/04/19 00:16:20;;;;;;;3.65;2.25;;;;;;;10.08;66.91;100265.35;1700841;84;21000;-56
2023/04/19 00:18:50;;;;;;;5.70;2.27;;;;;;;10.07;67.00;100262.30;1700390;84;21012;-56
2023/04/19 00:21:19;;;;;;;3.10;1.90;;;;;;;10.05;67.17;100263.01;1700727;84;21099;-55
2023/04/19 00:23:49;;;;;;;3.47;1.90;;;;;;;10.06;67.05;100270.17;1700810;84;21072;-55
2023/04/19 00:26:19;;;;;;;4.03;2.15;;;;;;;10.05;66.70;100257.53;1701103;84;21068;-56
2023/04/19 00:28:49;;;;;;;5.30;2.60;;;;;;;10.05;65.70;100254.80;1700805;84;21523;-56
2023/04/19 00:31:18;;;;;;;5.30;2.10;;;;;;;10.06;65.17;100253.23;1700794;84;21052;-55
2023/04/19 00:33:47;;;;;;;4.78;2.00;;;;;;;10.07;64.66;100248.61;1701011;84;21028;-56
2023/04/19 00:36:16;;;;;;;4.70;2.25;;;;;;;10.08;64.80;100248.92;1701140;84;21005;-56
2023/04/19 00:38:46;;;;;;;4.03;1.92;;;;;;;10.05;64.54;100244.70;1700690;82;21075;-56
2023/04/19 00:41:15;;;;;;;5.67;2.15;;;;;;;10.04;64.63;100236.16;1700970;84;21091;-56
2023/04/19 00:43:44;;;;;;;4.05;2.22;;;;;;;10.03;64.12;100245.94;1700826;84;21481;-56
2023/04/19 00:46:14;;;;;;;5.00;2.17;;;;;;;10.01;63.88;100242.55;1700802;84;21183;-56
2023/04/19 00:48:43;;;;;;;5.85;2.30;;;;;;;10.00;62.96;100249.92;1700784;84;21056;-58
2023/04/19 00:51:13;;;;;;;4.90;2.27;;;;;;;9.98;63.65;100243.80;1662718;84;21116;-56
2023/04/19 00:53:42;;;;;;;4.60;2.40;;;;;;;9.98;64.02;100245.69;1701147;84;21060;-56
2023/04/19 00:56:11;;;;;;;4.87;2.08;;;;;;;9.95;64.31;100239.23;1700799;84;21095;-56
2023/04/19 00:58:40;;;;;;;3.87;1.80;;;;;;;9.92;64.04;100237.74;1701037;84;21039;-56
2023/04/19 01:01:10;;;;;;;6.47;2.20;;;;;;;9.91;64.24;100242.05;1701003;84;21032;-56
2023/04/19 01:03:39;;;;;;;6.65;2.10;;;;;;;9.90;64.61;100234.36;1700989;84;21047;-57
2023/04/19 01:06:11;;;;;;;4.12;2.10;;;;;;;9.87;64.97;100229.28;1700962;84;21048;-56
2023/04/19 01:08:41;;;;;;;5.20;2.20;;;;;;;9.84;64.86;100227.78;1700997;84;21004;-56
2023/04/19 01:11:11;;;;;;;4.62;2.02;;;;;;;9.84;64.04;100225.57;1701029;84;21035;-56
2023/04/19 01:13:39;;;;;;;6.12;2.10;;;;;;;9.85;63.81;100224.00;1701061;84;21036;-56
2023/04/19 01:16:08;;;;;;;4.17;2.20;;;;;;;9.87;63.57;100223.81;1701083;84;21094;-55
2023/04/19 01:18:39;;;;;;;4.92;2.20;;;;;;;9.87;62.92;100224.33;1700835;84;21032;-56
2023/04/19 01:21:08;;;;;;;2.40;1.87;;;;;;;9.87;63.32;100221.59;1700703;84;21533;-56
2023/04/19 01:23:38;;;;;;;5.28;2.17;;;;;;;9.85;63.46;100218.53;1700915;84;21065;-55
2023/04/19 01:26:07;;;;;;;4.17;2.05;;;;;;;9.84;63.96;100215.47;1700788;84;21087;-56
2023/04/19 01:28:35;;;;;;;4.53;2.37;;;;;;;9.81;64.08;100209.02;1700802;84;21028;-55
2023/04/19 01:31:05;;;;;;;4.20;2.45;;;;;;;9.78;63.95;100217.63;1700890;84;21088;-56
2023/04/19 01:33:35;;;;;;;3.95;2.27;;;;;;;9.77;64.15;100209.09;1700794;84;21031;-55
2023/04/19 01:36:05;;;;;;;5.10;2.30;;;;;;;9.71;64.36;100204.38;1700971;84;21049;-56
2023/04/19 01:38:35;;;;;;;5.25;2.17;;;;;;;9.67;64.55;100201.71;1700601;84;21032;-57
2023/04/19 01:41:03;;;;;;;4.70;2.33;;;;;;;9.65;65.05;100205.16;1718717;83;21142;-55
2023/04/19 01:43:33;;;;;;;4.65;1.90;;;;;;;9.62;65.09;100204.19;1718967;83;21027;-55
2023/04/19 01:46:02;;;;;;;5.53;2.45;;;;;;;9.61;65.59;100214.81;1719027;83;21098;-56
2023/04/19 01:48:31;;;;;;;4.03;2.30;;;;;;;9.59;65.73;100211.94;1718973;83;21003;-61
2023/04/19 01:51:01;;;;;;;3.22;2.30;;;;;;;9.54;65.63;100212.02;1718904;83;21051;-56
2023/04/19 01:53:31;;;;;;;7.10;2.12;;;;;;;9.51;65.84;100217.03;1719101;83;21055;-56
2023/04/19 01:56:00;;;;;;;3.72;2.22;;;;;;;9.44;65.98;100207.91;1718788;83;21004;-56
2023/04/19 01:58:29;;;;;;;4.20;2.30;;;;;;;9.39;66.15;100215.33;1718708;83;21654;-56
2023/04/19 02:00:58;;;;;;;5.12;2.15;;;;;;;9.37;67.15;100211.09;1718896;83;21043;-55
2023/04/19 02:03:27;;;;;;;5.60;3.02;;;;;;;9.32;67.58;100208.95;1718998;83;21039;-57
2023/04/19 02:05:57;;;;;;;5.40;2.45;;;;;;;9.28;67.59;100204.06;1718797;83;21448;-56
2023/04/19 02:08:26;;;;;;;4.53;2.47;;;;;;;9.20;67.45;100204.52;1718668;83;21492;-56
2023/04/19 02:10:55;;;;;;;6.70;2.40;;;;;;;9.15;67.80;100196.56;1718657;83;21079;-55
2023/04/19 02:13:25;;;;;;;4.95;2.40;;;;;;;9.11;67.89;100202.09;1719031;83;21110;-57
2023/04/19 02:15:54;;;;;;;6.47;2.40;;;;;;;9.09;68.04;100196.79;1718455;83;21063;-55
2023/04/19 02:18:23;;;;;;;8.60;2.65;;;;;;;9.09;67.77;100196.79;1719040;83;21038;-56
2023/04/19 02:20:51;;;;;;;5.65;2.40;;;;;;;9.06;67.53;100195.81;1718642;83;21004;-56
2023/04/19 02:23:22;;;;;;;3.85;2.05;;;;;;;9.02;67.88;100202.70;1718535;83;21502;-56
2023/04/19 02:25:51;;;;;;;6.67;2.27;;;;;;;9.00;68.22;100193.00;1718886;83;21113;-54
2023/04/19 02:28:19;;;;;;;7.22;3.00;;;;;;;8.97;67.69;100194.23;1718719;83;21424;-56
2023/04/19 02:30:48;;;;;;;4.83;2.30;;;;;;;8.94;67.58;100197.34;1718423;83;21515;-57
2023/04/19 02:33:18;;;;;;;3.85;2.25;;;;;;;8.92;68.06;100201.31;1718821;83;21230;-57
2023/04/19 02:35:47;;;;;;;6.95;2.25;;;;;;;8.87;68.29;100197.27;1718751;83;21023;-55
2023/04/19 02:38:17;;;;;;;4.90;2.33;;;;;;;8.86;68.20;100198.83;1718927;83;21007;-55
2023/04/19 02:40:47;;;;;;;6.03;2.25;;;;;;;8.80;68.32;100199.08;1720146;83;21039;-56
2023/04/19 02:43:16;;;;;;;7.70;2.77;;;;;;;8.79;68.70;100197.91;1720817;83;20995;-55
2023/04/19 02:45:45;;;;;;;4.70;2.22;;;;;;;8.78;69.08;100205.25;1721122;83;21118;-56
2023/04/19 02:48:16;;;;;;;5.00;2.58;;;;;;;8.76;68.74;100205.95;1720715;83;21011;-57
2023/04/19 02:50:44;;;;;;;5.45;2.67;;;;;;;8.73;68.67;100198.66;1720959;83;21066;-57
2023/04/19 02:53:13;;;;;;;4.42;2.50;;;;;;;8.69;68.68;100206.39;1720981;83;21075;-57
2023/04/19 02:55:42;;;;;;;4.90;2.10;;;;;;;8.67;68.55;100203.00;1720768;83;21063;-57
2023/04/19 02:58:12;;;;;;;7.87;2.83;;;;;;;8.64;68.22;100209.37;1720293;83;21066;-56
2023/04/19 03:00:43;;;;;;;8.75;2.47;;;;;;;8.65;67.85;100206.97;1719915;83;21467;-57
2023/04/19 03:03:13;;;;;;;6.35;2.85;;;;;;;8.65;67.90;100201.50;1720615;83;21016;-56
2023/04/19 03:05:43;;;;;;;5.53;2.40;;;;;;;8.65;67.10;100198.25;1721083;83;21075;-57
2023/04/19 03:08:11;;;;;;;7.75;2.65;;;;;;;8.69;67.11;100210.48;1721129;83;21071;-56
2023/04/19 03:10:41;;;;;;;5.65;2.60;;;;;;;8.69;67.25;100198.20;1721381;83;21062;-57
2023/04/19 03:13:10;;;;;;;6.40;2.65;;;;;;;8.67;67.16;100204.89;1723082;83;21054;-56
2023/04/19 03:15:38;;;;;;;4.97;2.85;;;;;;;8.64;67.58;100195.70;1724107;83;21133;-56
2023/04/19 03:18:08;;;;;;;6.35;2.52;;;;;;;8.62;67.62;100195.91;1723428;83;21520;-54
2023/04/19 03:20:37;;;;;;;5.47;2.22;;;;;;;8.61;68.27;100194.20;1722369;83;21058;-54
2023/04/19 03:23:06;;;;;;;6.20;3.02;;;;;;;8.63;68.09;100190.77;1721434;83;21031;-56
2023/04/19 03:25:35;;;;;;;3.90;2.30;;;;;;;8.65;68.10;100189.21;1698415;83;21071;-55
2023/04/19 03:28:06;;;;;;;6.33;2.30;;;;;;;8.64;67.41;100187.00;1718537;83;21116;-57
2023/04/19 03:30:53;;;;;;;5.50;2.47;;;;;;;8.68;66.97;100186.09;1721240;83;21031;-56
2023/04/19 03:33:22;;;;;;;6.75;2.05;;;;;;;8.71;65.29;100186.56;1721029;83;21111;-55
2023/04/19 03:35:51;;;;;;;5.75;2.08;;;;;;;8.78;65.40;100187.49;1720787;83;21431;-57
2023/04/19 03:38:20;;;;;;;7.80;2.60;;;;;;;8.84;64.83;100187.24;1720871;83;21001;-55
2023/04/19 03:40:50;;;;;;;5.72;2.40;;;;;;;8.89;64.44;100184.78;1706795;83;21107;-57
2023/04/19 03:43:19;;;;;;;4.65;2.45;;;;;;;8.94;64.19;100182.84;1700784;84;21036;-57
2023/04/19 03:45:49;;;;;;;5.37;2.30;;;;;;;8.98;64.39;100182.27;1700705;84;21156;-57
2023/04/19 03:48:19;;;;;;;3.00;1.92;;;;;;;9.01;64.05;100175.56;1700618;84;21404;-56
2023/04/19 03:50:48;;;;;;;4.47;2.42;;;;;;;9.01;63.62;100176.41;1700949;84;21039;-57
2023/04/19 03:53:18;;;;;;;4.67;2.52;;;;;;;9.04;62.98;100174.66;1700721;84;21505;-56
2023/04/19 03:55:47;;;;;;;6.00;2.55;;;;;;;9.07;62.57;100184.36;1700950;84;21064;-54
2023/04/19 03:58:16;;;;;;;3.45;2.12;;;;;;;9.09;62.47;100176.81;1700920;84;21051;-56
2023/04/19 04:00:46;;;;;;;4.92;2.65;;;;;;;9.14;62.72;100186.67;1700378;84;21016;-56
2023/04/19 04:03:16;;;;;;;6.10;2.58;;;;;;;9.19;62.59;100176.84;1700672;84;21518;-56
2023/04/19 04:05:46;;;;;;;5.50;2.45;;;;;;;9.26;61.70;100187.01;1700906;84;21020;-56
2023/04/19 04:08:15;;;;;;;4.97;2.60;;;;;;;9.29;60.82;100182.52;1701007;84;21105;-57
2023/04/19 04:10:44;;;;;;;6.95;3.10;;;;;;;9.31;60.81;100182.64;1700672;84;21060;-57
2023/04/19 04:13:13;;;;;;;5.35;2.72;;;;;;;9.34;61.27;100180.05;1700639;84;21075;-57
2023/04/19 04:15:43;;;;;;;5.97;2.30;;;;;;;9.36;60.83;100176.07;1700420;84;21087;-56
2023/04/19 04:18:13;;;;;;;5.15;2.60;;;;;;;9.39;60.39;100184.41;1700725;84;21024;-55
2023/04/19 04:20:43;;;;;;;5.80;2.55;;;;;;;9.39;60.44;100178.42;1700681;83;21044;-56
2023/04/19 04:23:13;;;;;;;6.72;2.83;;;;;;;9.42;60.07;100175.81;1700604;84;21060;-55
2023/04/19 04:25:44;;;;;;;6.60;2.87;;;;;;;9.45;60.36;100175.42;1700845;84;21024;-57
2023/04/19 04:28:13;;;;;;;5.55;2.70;;;;;;;9.49;60.90;100172.09;1700853;84;21032;-57
2023/04/19 04:30:43;;;;;;;5.97;2.47;;;;;;;9.55;60.13;100173.20;1700970;84;21094;-58
2023/04/19 04:33:13;;;;;;;7.97;3.33;;;;;;;9.61;59.73;100173.78;1700911;84;21059;-58
2023/04/19 04:35:44;;;;;;;3.87;2.40;;;;;;;9.69;59.61;100185.10;1700917;83;21471;-57
2023/04/19 04:38:14;;;;;;;6.97;2.85;;;;;;;9.75;59.48;100182.45;1700681;84;21077;-55
2023/04/19 04:40:52;;;;;;;6.90;3.35;;;;;;;9.79;58.79;100178.28;1709685;83;21144;-56
2023/04/19 04:43:27;;;;;;;8.10;2.90;;;;;;;9.87;58.97;100181.91;1716219;83;21100;-56
2023/04/19 04:45:56;;;;;;;4.83;2.62;;;;;;;9.94;58.79;100174.59;1716258;83;21003;-57
2023/04/19 04:48:28;;;;;;;7.03;2.90;;;;;;;10.02;58.88;100178.55;1716338;83;21031;-57
2023/04/19 04:50:58;;;;;;;4.65;2.37;;;;;;;10.09;57.93;100184.39;1716305;83;21051;-56
2023/04/19 04:53:30;;;;;;;4.90;2.45;;;;;;;10.17;57.79;100182.02;1716336;83;21475;-57
2023/04/19 04:55:59;;;;;;;5.22;2.30;;;;;;;10.26;57.10;100184.96;1692053;83;21031;-59
2023/04/19 04:58:30;;;;;;;5.55;2.40;;;;;;;10.36;56.79;100194.19;1716493;83;21063;-56
2023/04/19 05:01:00;;;;;;;5.28;2.80;;;;;;;10.43;55.87;100189.63;1715924;83;21063;-56
2023/04/19 05:03:29;;;;;;;6.30;2.80;;;;;;;10.45;55.34;100193.01;1691843;83;21082;-56
2023/04/19 05:06:00;;;;;;;7.12;3.10;;;;;;;10.48;55.28;100188.49;1716258;83;21481;-57
2023/04/19 05:08:31;;;;;;;5.80;2.70;;;;;;;10.51;55.20;100192.72;1716270;83;21063;-56
2023/04/19 05:11:02;;;;;;;10.10;3.98;;;;;;;10.51;55.46;100189.45;1714492;83;21072;-57
2023/04/19 05:13:31;;;;;;;6.05;3.22;;;;;;;10.54;56.02;100196.42;1716334;83;21475;-57
2023/04/19 05:16:00;;;;;;;7.03;3.22;;;;;;;10.55;56.24;100188.53;1716204;83;21047;-56
2023/04/19 05:18:30;;;;;;;10.13;2.80;;;;;;;10.60;56.07;100188.77;1716459;83;21439;-58
2023/04/19 05:20:58;;;;;;;6.58;2.62;;;;;;;10.64;56.16;100196.37;1716054;83;21107;-56
2023/04/19 05:23:29;;;;;;;6.22;2.75;;;;;;;10.69;55.64;100196.61;1716358;83;21055;-58
2023/04/19 05:25:58;;;;;;;7.65;2.92;;;;;;;10.72;55.66;100192.62;1716222;83;21461;-55
2023/04/19 05:28:28;;;;;;;5.87;3.02;;;;;;;10.74;55.92;100196.00;1716254;83;21079;-57
2023/04/19 05:30:59;;;;;;;9.88;2.90;;;;;;;10.78;55.61;100200.02;1714789;83;21489;-56
2023/04/19 05:33:31;;;;;;;13.43;3.27;;;;;;;10.80;55.36;100187.80;1716142;83;21475;-57
2023/04/19 05:36:00;;;;;;;4.70;2.72;;;;;;;10.83;55.52;100193.41;1716122;83;21058;-56
2023/04/19 05:38:30;;;;;;;9.08;3.12;;;;;;;10.88;55.55;100192.27;1716396;83;21065;-56
2023/04/19 05:40:59;;;;;;;8.10;3.02;;;;;;;10.91;55.39;100190.48;1711084;81;21132;-58
2023/04/19 05:43:28;;;;;;;7.97;3.47;;;;;;;10.93;55.27;100192.49;1705799;84;21511;-57
2023/04/19 05:45:57;;;;;;;8.23;3.30;;;;;;;10.95;55.34;100195.03;1704771;84;21060;-56
2023/04/19 05:48:27;;;;;;;11.25;3.02;;;;;;;10.95;55.66;100193.13;1700608;83;21032;-58
2023/04/19 05:50:58;;;;;;;11.55;3.10;;;;;;;10.95;55.91;100186.28;1698865;84;21099;-58
2023/04/19 05:53:35;;;;;;;;;;;;;;;10.96;55.62;100187.97;1673058;84;21104;-56
2023/04/19 05:56:05;;;;;;;8.50;3.15;;;;;;;10.96;55.84;100196.72;1700855;84;20554;-56
2023/04/19 05:58:35;;;;;;;5.37;2.80;;;;;;;10.97;56.01;100193.77;1700622;84;21087;-57
2023/04/19 06:01:05;;;;;;;9.70;3.40;;;;;;;10.97;55.99;100188.29;1700307;84;21004;-56
2023/04/19 06:03:34;;;;;;;7.10;2.85;;;;;;;10.97;54.68;100184.70;1700754;84;21032;-58
2023/04/19 06:06:04;;;;;;;10.90;3.00;;;;;;;10.93;55.02;100196.60;1700584;84;21028;-59
2023/04/19 06:08:33;;;;;;;6.37;2.87;;;;;;;10.93;54.95;100199.34;1700722;84;21064;-58
2023/04/19 06:11:02;;;;;;;10.03;2.90;;;;;;;10.91;54.88;100193.22;1700811;84;21040;-57
2023/04/19 06:13:34;;;;;;;8.23;3.00;;;;;;;10.89;54.98;100190.37;1698179;84;21117;-56
2023/04/19 06:16:05;;;;;;;8.03;2.90;;;;;;;10.88;55.58;100182.67;1700734;84;21558;-57
2023/04/19 06:18:35;;;;;;;8.03;3.27;;;;;;;10.88;55.68;100190.05;1700726;84;21057;-56
2023/04/19 06:21:05;;;;;;;10.75;3.62;;;;;;;10.91;56.08;100187.74;1700950;84;21059;-57
2023/04/19 06:23:34;;;;;;;10.15;4.10;;;;;;;10.93;56.32;100185.64;1700778;84;21441;-58
2023/04/19 06:26:03;;;;;;;7.50;2.92;;;;;;;10.96;56.45;100189.34;1700994;84;20996;-56
2023/04/19 06:28:33;;;;;;;17.25;3.47;;;;;;;10.99;56.16;100186.19;1700940;84;21000;-59
2023/04/19 06:31:04;;;;;;;6.87;3.20;;;;;;;11.00;56.13;100184.29;1700869;84;21559;-56
2023/04/19 06:33:32;;;;;;;10.60;3.33;;;;;;;11.02;56.46;100188.52;1700835;84;21028;-57
2023/04/19 06:36:01;;;;;;;8.33;2.90;;;;;;;11.06;56.07;100184.88;1700972;84;21080;-57
2023/04/19 06:38:30;;;;;;;6.05;2.72;;;;;;;11.04;55.82;100185.05;1700785;84;21032;-57
2023/04/19 06:40:59;;;;;;;8.85;2.95;;;;;;;11.05;55.82;100184.02;1706725;83;21035;-57
2023/04/19 06:43:28;;;;;;;7.15;2.75;;;;;;;11.08;56.24;100184.98;1718687;83;21059;-57
2023/04/19 06:45:58;;;;;;;6.90;2.90;;;;;;;11.15;56.65;100180.05;1719140;83;21099;-55
2023/04/19 06:48:28;;;;;;;7.70;3.30;;;;;;;11.23;56.41;100182.59;1718909;83;21063;-56
2023/04/19 06:51:01;;;;;;;8.95;3.10;;;;;;;11.30;56.61;100178.81;1719550;83;21011;-56
2023/04/19 06:53:31;;;;;;;8.73;3.00;;;;;;;11.39;56.76;100173.45;1719903;83;21003;-58
2023/04/19 06:56:00;;;;;;;8.43;2.80;;;;;;;11.52;56.54;100169.88;1720686;83;21115;-58
2023/04/19 06:58:31;;;;;;;12.07;3.50;;;;;;;11.71;55.94;100163.59;1721394;83;21055;-55
2023/04/19 07:01:03;;;;;;;9.50;3.50;;;;;;;12.06;55.87;100168.88;1719335;83;21027;-56
2023/04/19 07:03:32;;;;;;;8.75;2.70;;;;;;;12.44;55.27;100172.32;1718661;83;21043;-56
2023/04/19 07:06:04;;;;;;;10.55;3.10;;;;;;;12.95;54.29;100164.94;1718920;83;21458;-57
2023/04/19 07:08:33;;;;;;;9.85;2.80;;;;;;;13.60;52.73;100164.80;1718745;83;21051;-56
2023/04/19 07:11:05;;;;;;;9.80;2.45;;;;;;;14.14;51.16;100158.64;1716527;83;21110;-57
2023/04/19 07:13:34;;;;;;;8.03;3.02;;;;;;;14.59;50.63;100161.19;1718944;83;21055;-57
2023/04/19 07:16:06;;;;;;;7.75;2.75;;;;;;;15.05;50.08;100162.02;1718900;83;21087;-57
2023/04/19 07:18:36;;;;;;;7.92;2.37;;;;;;;15.34;48.32;100159.49;1718919;83;21078;-58
2023/04/19 07:21:05;;;;;;;8.05;2.85;;;;;;;15.65;47.37;100158.45;1718550;83;21007;-57
2023/04/19 07:23:34;;;;;;;8.05;2.65;;;;;;;15.90;45.95;100161.00;1718752;83;21024;-57
2023/04/19 07:26:04;;;;;;;5.70;2.62;;;;;;;16.02;45.08;100159.94;1718785;83;21603;-57
2023/04/19 07:28:33;;;;;;;8.70;2.83;;;;;;;16.00;45.71;100169.01;1718811;83;21082;-58
2023/04/19 07:31:02;;;;;;;8.78;2.80;;;;;;;16.13;45.61;100169.31;1719073;83;21039;-57
2023/04/19 07:33:31;;;;;;;13.10;2.87;;;;;;;16.31;45.59;100160.94;1718738;83;21079;-56
2023/04/19 07:35:59;;;;;;;11.50;3.10;;;;;;;16.53;44.75;100163.92;1718729;83;21039;-57
2023/04/19 07:38:29;;;;;;;12.40;3.02;;;;;;;16.75;45.00;100158.61;1718692;83;21513;-56
2023/04/19 07:40:57;;;;;;;14.07;3.10;;;;;;;16.89;44.92;100160.56;1719227;83;21126;-59
2023/04/19 07:43:26;;;;;;;8.15;3.05;;;;;;;17.03;44.21;100162.00;1712994;83;21095;-57
2023/04/19 07:45:55;;;;;;;11.57;3.00;;;;;;;17.33;44.11;100163.98;1720918;83;21066;-57
2023/04/19 07:48:24;;;;;;;8.75;2.90;;;;;;;17.54;43.20;100158.81;1721050;83;21431;-57
2023/04/19 07:50:53;;;;;;;8.05;3.10;;;;;;;17.62;42.97;100157.05;1719814;83;21086;-60
2023/04/19 07:53:21;;;;;;;10.00;2.92;;;;;;;17.69;42.87;100153.06;1690092;83;21043;-58
2023/04/19 07:55:50;;;;;;;11.70;3.10;;;;;;;17.82;41.89;100159.37;1686175;85;21044;-58
2023/04/19 07:58:19;;;;;;;7.60;2.92;;;;;;;17.98;41.63;100159.92;1685918;85;21071;-57
2023/04/19 08:00:48;;;;;;;43.83;6.30;;;;;;;18.15;41.77;100152.98;1686409;81;21067;-58
2023/04/19 08:03:17;;;;;;;5.33;2.52;;;;;;;18.42;40.79;100147.04;1731511;81;21465;-58
2023/04/19 08:05:46;;;;;;;9.25;2.65;;;;;;;18.55;40.81;100144.45;1720506;83;21061;-58
2023/04/19 08:08:18;;;;;;;11.43;3.15;;;;;;;18.77;40.84;100136.16;1707812;84;21041;-58
2023/04/19 08:10:46;;;;;;;13.62;3.10;;;;;;;18.94;40.91;100140.58;1675997;85;21064;-57
2023/04/19 08:13:15;;;;;;;17.37;4.60;;;;;;;19.07;40.23;100139.34;1712627;83;21661;-58
2023/04/19 08:15:44;;;;;;;10.18;2.85;;;;;;;19.20;40.91;100138.09;1717325;83;21444;-57
2023/04/19 08:18:14;;;;;;;11.78;3.00;;;;;;;19.29;41.03;100140.15;1708918;84;21050;-56
2023/04/19 08:20:47;;;;;;;10.65;2.75;;;;;;;19.50;40.01;100151.47;1688602;85;21469;-55
2023/04/19 08:23:16;;;;;;;14.10;3.25;;;;;;;19.75;38.30;100149.00;1688657;84;21036;-57
2023/04/19 08:25:46;;;;;;;12.68;5.20;;;;;;;19.93;38.18;100145.81;1686876;84;21091;-57
2023/04/19 08:28:17;;;;;;;10.68;3.80;;;;;;;20.10;38.32;100133.70;1688572;85;21087;-57
2023/04/19 08:30:47;;;;;;;16.50;3.87;;;;;;;20.20;37.68;100131.86;1669584;85;21142;-57
2023/04/19 08:33:16;;;;;;;10.98;2.95;;;;;;;20.16;38.57;100138.23;1688719;85;21063;-56
2023/04/19 08:35:46;;;;;;;9.85;2.92;;;;;;;20.16;37.67;100139.63;1688663;84;21011;-57
2023/04/19 08:38:14;;;;;;;8.98;3.17;;;;;;;20.09;37.56;100131.48;1688713;84;21055;-57
2023/04/19 08:40:48;;;;;;;11.53;2.60;;;;;;;20.07;36.68;100122.56;1688785;85;21047;-57
2023/04/19 08:43:18;;;;;;;11.03;3.15;;;;;;;19.97;37.39;100123.04;1688766;85;21087;-59
2023/04/19 08:45:48;;;;;;;10.38;2.67;;;;;;;19.85;37.48;100112.94;1688689;85;21055;-57
2023/04/19 08:48:18;;;;;;;9.95;2.60;;;;;;;19.81;38.02;100112.34;1688614;85;21058;-58
2023/04/19 08:50:48;;;;;;;9.20;2.80;;;;;;;19.79;38.92;100113.16;1688567;84;21039;-59
2023/04/19 08:53:19;;;;;;;14.30;3.10;;;;;;;19.76;38.77;100113.69;1685963;84;21513;-59
2023/04/19 08:55:50;;;;;;;14.03;3.60;;;;;;;19.74;39.37;100098.67;1669157;84;21455;-58
2023/04/19 08:58:20;;;;;;;13.88;3.00;;;;;;;19.50;38.66;100110.63;1688793;85;21106;-57
2023/04/19 09:00:50;;;;;;;13.60;2.85;;;;;;;19.11;39.27;100104.39;1685757;83;21111;-58
2023/04/19 09:03:19;;;;;;;13.08;2.95;;;;;;;18.79;39.42;100106.21;1659849;86;21106;-58
2023/04/19 09:05:48;;;;;;;10.80;2.70;;;;;;;18.52;40.26;100098.63;1658862;86;21055;-58
2023/04/19 09:08:30;;;;;;;13.08;2.60;;;;;;;18.40;40.92;100108.16;1691350;85;21043;-58
2023/04/19 09:11:00;;;;;;;10.63;2.75;;;;;;;18.30;40.59;100105.54;1706792;83;21064;-58
2023/04/19 09:13:29;;;;;;;11.45;2.85;;;;;;;18.02;40.68;100103.71;1723240;83;21668;-58
2023/04/19 09:15:59;;;;;;;13.65;3.35;;;;;;;17.89;41.73;100105.99;1724510;83;21009;-60
2023/04/19 09:18:28;;;;;;;14.47;2.60;;;;;;;17.90;41.82;100104.36;1707879;84;21073;-57
2023/04/19 09:20:59;;;;;;;19.02;2.95;;;;;;;17.87;41.37;100114.56;1659316;86;21213;-58
2023/04/19 09:23:29;;;;;;;14.83;2.85;;;;;;;17.75;41.27;100123.51;1660723;86;21106;-57
2023/04/19 09:26:03;;;;;;;9.10;2.08;;;;;;;17.53;40.92;100121.96;1707811;83;21104;-56
2023/04/19 09:28:34;;;;;;;17.02;3.00;;;;;;;17.36;41.61;100131.63;1656880;86;21092;-57
2023/04/19 09:31:12;;;;;;;11.15;2.27;;;;;;;17.27;41.33;100120.66;1660346;85;21083;-58
2023/04/19 09:33:44;;;;;;;18.32;2.75;;;;;;;17.25;41.57;100118.69;1704193;84;21038;-57
2023/04/19 09:36:31;;;;;;;17.48;3.47;;;;;;;17.26;41.78;100122.30;1711573;83;21067;-59
2023/04/19 09:39:00;;;;;;;13.08;2.83;;;;;;;17.32;42.10;100114.38;1708020;84;21456;-58
2023/04/19 09:41:29;;;;;;;16.48;2.42;;;;;;;17.43;42.41;100121.23;1737851;82;21087;-57
2023/04/19 09:44:10;;;;;;;17.42;4.10;;;;;;;17.47;41.63;100122.96;1738205;82;21014;-57
2023/04/19 09:46:45;;;;;;;16.30;4.12;;;;;;;17.35;41.15;100127.18;1733982;82;21052;-57
2023/04/19 09:49:21;;;;;;;15.53;2.58;;;;;;;17.24;41.72;100118.94;1738598;82;21044;-57
2023/04/19 09:51:55;;;;;;;21.12;2.80;;;;;;;17.12;41.75;100113.45;1702026;83;21034;-56
2023/04/19 09:54:27;;;;;;;17.87;3.02;;;;;;;16.98;41.87;100103.22;1738139;82;21028;-57
2023/04/19 09:56:55;;;;;;;17.45;2.72;;;;;;;16.86;42.33;100119.55;1703139;84;21065;-59
2023/04/19 09:59:25;;;;;;;15.72;2.80;;;;;;;16.76;42.38;100101.65;1738081;82;21088;-57
2023/04/19 10:01:55;;;;;;;18.27;2.83;;;;;;;16.73;42.76;100106.84;1737354;82;21028;-57
2023/04/19 10:04:25;;;;;;;24.70;3.25;;;;;;;16.74;43.22;100103.82;1720503;83;21035;-58
2023/04/19 10:06:56;;;;;;;11.68;2.83;;;;;;;16.76;43.46;100109.11;1717325;83;21483;-57
2023/04/19 10:09:28;;;;;;;13.10;2.30;;;;;;;16.82;43.47;100108.67;1721116;83;21082;-56
2023/04/19 10:11:57;;;;;;;17.90;3.00;;;;;;;16.84;43.00;100105.11;1723423;83;21033;-58
2023/04/19 10:14:32;;;;;;;16.27;2.58;;;;;;;16.80;42.85;100105.61;1719395;83;21475;-59
2023/04/19 10:16:59;;;;;;;27.95;3.30;;;;;;;16.79;42.89;100123.30;1709023;83;21085;-57
2023/04/19 10:19:29;;;;;;;23.60;3.33;;;;;;;16.79;42.61;100117.77;1681969;83;21048;-57
2023/04/19 10:21:59;;;;;;;19.55;3.12;;;;;;;16.70;42.87;100112.86;1725566;83;21100;-56
2023/04/19 10:24:28;;;;;;;23.42;3.55;;;;;;;16.64;43.13;100117.41;1725208;83;21088;-59
2023/04/19 10:27:10;;;;;;;22.50;3.45;;;;;;;16.60;43.35;100108.47;1722953;83;21098;-59
2023/04/19 10:30:02;;;;;;;25.55;3.10;;;;;;;16.60;43.39;100106.53;1720856;83;21107;-59
2023/04/19 10:32:40;;;;;;;20.92;3.25;;;;;;;16.60;43.75;100107.92;1720707;83;21035;-57
2023/04/19 10:35:25;;;;;;;21.23;3.27;;;;;;;16.65;44.01;100105.29;1720547;83;21071;-59
2023/04/19 10:38:11;;;;;;;22.73;3.65;;;;;;;16.74;43.68;100107.97;1720656;83;21035;-57
2023/04/19 10:40:55;;;;;;;22.22;3.92;;;;;;;16.79;43.72;100117.77;1706176;83;21054;-57
2023/04/19 10:43:25;;;;;;;24.07;3.58;;;;;;;16.79;44.06;100119.69;1718980;83;21574;-57
2023/04/19 10:45:56;;;;;;;22.45;3.35;;;;;;;16.80;43.66;100123.59;1718374;83;21456;-58
2023/04/19 10:48:34;;;;;;;22.05;3.40;;;;;;;16.78;43.67;100116.08;1718232;83;21041;-56
2023/04/19 10:51:17;;;;;;;17.62;3.25;;;;;;;16.79;44.04;100116.38;1718248;83;21088;-59
2023/04/19 10:53:58;;;;;;;23.00;2.95;;;;;;;16.86;44.34;100122.31;1718046;83;21072;-56
2023/04/19 10:56:40;;;;;;;22.73;3.35;;;;;;;16.95;44.33;100116.17;1718037;83;21324;-57
2023/04/19 10:59:20;;;;;;;24.18;4.37;;;;;;;17.07;44.10;100106.44;1718110;83;21065;-57
2023/04/19 11:01:45;;;;;;;19.25;3.00;;;;;;;17.11;43.31;100119.53;1717737;83;21128;-56
2023/04/19 11:04:26;;;;;;;22.67;3.15;;;;;;;17.08;43.10;100131.64;1690035;85;21043;-57
2023/04/19 11:07:02;;;;;;;30.45;3.80;;;;;;;17.03;43.26;100110.78;1689917;85;21039;-57
2023/04/19 11:09:41;;;;;;;17.90;3.43;;;;;;;17.03;43.62;100117.70;1695217;83;21076;-58
2023/04/19 11:12:16;;;;;;;17.32;3.05;;;;;;;17.12;43.76;100120.38;1702954;84;22090;-58
2023/04/19 11:14:48;;;;;;;17.00;3.35;;;;;;;17.20;44.02;100112.21;1708506;84;21538;-58
2023/04/19 11:17:24;;;;;;;22.60;3.55;;;;;;;17.26;43.71;100116.21;1708628;83;21053;-59
2023/04/19 11:20:08;;;;;;;25.55;3.40;;;;;;;17.27;43.63;100126.20;1709891;83;21620;-57
2023/04/19 11:22:40;;;;;;;35.35;4.62;;;;;;;17.29;43.16;100110.17;1702808;84;21515;-57
2023/04/19 11:25:18;;;;;;;19.95;3.65;;;;;;;17.25;42.71;100125.61;1654522;87;21083;-59
2023/04/19 11:27:52;;;;;;;35.17;3.85;;;;;;;17.22;43.00;100118.34;1654712;87;21103;-59
2023/04/19 11:30:27;;;;;;;26.37;3.55;;;;;;;17.23;43.23;100131.94;1692321;84;21091;-59
2023/04/19 11:32:57;;;;;;;26.82;3.65;;;;;;;17.26;43.34;100132.83;1726325;82;21420;-59
2023/04/19 11:35:27;;;;;;;22.60;3.10;;;;;;;17.25;42.66;100135.30;1734909;82;21049;-59
2023/04/19 11:37:58;;;;;;;22.00;3.47;;;;;;;17.20;42.57;100134.36;1727650;82;21080;-58
2023/04/19 11:40:27;;;;;;;23.12;3.40;;;;;;;17.17;43.08;100131.55;1705189;84;21081;-61